Time;durP1;ratioP1;P1;durP2;ratioP2;P2;SDS_P1;SDS_P2;PMS_P1;PMS_P2;Temp;Humidity;BMP_temperature;BMP_pressure;BME280_temperature;BME280_humidity;BME280_pressure;Samples;Min_cycle;Max_cycle;Signal;HPM_P1;HPM_P2
2022/08/24 00:00:30;;;;;;;27.80;23.20;;;;;;;19.10;100.00;96797.41;108596;1268;23896;-81
2022/08/24 00:03:10;;;;;;;29.40;24.10;;;;;;;19.12;100.00;96789.12;108519;1268;23212;-81
2022/08/24 00:05:43;;;;;;;28.10;24.70;;;;;;;19.14;100.00;96788.35;108454;1268;22556;-81
2022/08/24 00:08:12;;;;;;;33.90;26.30;;;;;;;19.13;100.00;96790.23;108554;1268;29714;-81
2022/08/24 00:10:41;;;;;;;33.00;25.70;;;;;;;19.07;100.00;96790.95;108556;1265;24198;-81
2022/08/24 00:13:10;;;;;;;35.30;28.60;;;;;;;19.04;100.00;96787.44;108438;1268;23772;-81
2022/08/24 00:15:40;;;;;;;36.50;28.10;;;;;;;19.05;100.00;96787.17;108571;1268;22562;-82
2022/08/24 00:18:09;;;;;;;34.10;27.00;;;;;;;19.09;100.00;96786.15;108483;1267;48423;-81
2022/08/24 00:20:41;;;;;;;34.60;28.60;;;;;;;19.10;100.00;96784.80;108589;1268;27145;-80
2022/08/24 00:23:10;;;;;;;35.10;26.80;;;;;;;19.08;100.00;96785.82;108452;1268;22890;-80
2022/08/24 00:25:42;;;;;;;31.90;26.40;;;;;;;19.03;100.00;96793.88;108555;1268;24222;-80
2022/08/24 00:28:12;;;;;;;36.30;28.00;;;;;;;18.98;100.00;96795.29;108414;1268;101622;-81
2022/08/24 00:30:43;;;;;;;35.20;27.10;;;;;;;18.95;100.00;96799.33;108588;1268;22554;-80
2022/08/24 00:33:11;;;;;;;37.00;28.50;;;;;;;18.95;100.00;96802.79;108693;1268;25257;-81
2022/08/24 00:35:42;;;;;;;40.50;31.20;;;;;;;18.95;100.00;96808.63;108608;1268;25445;-81
2022/08/24 00:38:10;;;;;;;40.00;31.60;;;;;;;18.95;100.00;96814.00;108474;1268;67536;-80
2022/08/24 00:40:49;;;;;;;41.50;32.60;;;;;;;18.94;100.00;96815.97;108700;1268;23124;-81
2022/08/24 00:43:24;;;;;;;39.80;31.10;;;;;;;18.92;100.00;96817.86;108587;1268;23310;-81
2022/08/24 00:46:15;;;;;;;39.50;31.30;;;;;;;18.85;100.00;96818.30;108611;1267;22487;-81
2022/08/24 00:48:55;;;;;;;41.10;31.30;;;;;;;18.83;100.00;96826.49;108538;1268;31335;-81
2022/08/24 00:51:29;;;;;;;42.90;32.50;;;;;;;18.82;100.00;96831.00;108424;1268;22569;-81
2022/08/24 00:54:04;;;;;;;40.30;31.30;;;;;;;18.80;100.00;96831.52;108544;1268;23716;-81
2022/08/24 00:56:37;;;;;;;41.70;33.00;;;;;;;18.80;100.00;96829.30;108622;1267;25432;-81
2022/08/24 00:59:11;;;;;;;40.50;31.30;;;;;;;18.82;100.00;96825.17;108565;1268;29057;-80
2022/08/24 01:01:43;;;;;;;43.90;35.50;;;;;;;18.83;100.00;96825.71;108629;1268;22740;-81
2022/08/24 01:04:17;;;;;;;37.80;30.50;;;;;;;18.80;100.00;96825.38;108603;1268;24206;-81
2022/08/24 01:06:48;;;;;;;46.70;35.90;;;;;;;18.74;100.00;96828.15;108571;1268;22609;-81
2022/08/24 01:09:17;;;;;;;39.30;31.50;;;;;;;18.70;100.00;96829.45;108509;1268;35397;-80
2022/08/24 01:11:48;;;;;;;44.30;36.20;;;;;;;18.68;100.00;96831.08;108604;1268;22493;-81
2022/08/24 01:14:18;;;;;;;44.40;35.00;;;;;;;18.68;100.00;96835.59;108582;1267;22500;-80
2022/08/24 01:19:41;;;;;;;46.10;35.30;;;;;;;18.67;100.00;96830.48;108555;1268;25266;-80
2022/08/24 01:22:25;;;;;;;45.60;36.60;;;;;;;18.71;100.00;96827.49;108575;1268;23902;-80
2022/08/24 01:24:54;;;;;;;46.20;35.20;;;;;;;18.71;100.00;96828.98;108601;1268;23360;-80
2022/08/24 01:27:51;;;;;;;42.60;34.60;;;;;;;18.71;100.00;96831.56;108602;1266;23845;-80
2022/08/24 01:30:20;;;;;;;45.40;36.60;;;;;;;18.74;100.00;96836.84;108588;1268;22547;-80
2022/08/24 01:33:00;;;;;;;47.30;38.80;;;;;;;18.75;100.00;96840.63;108546;1266;24308;-80
2022/08/24 01:35:31;;;;;;;46.30;37.50;;;;;;;18.75;100.00;96846.63;108582;1268;22612;-81
2022/08/24 01:38:06;;;;;;;41.70;32.90;;;;;;;18.76;100.00;96848.80;108362;1268;35446;-80
2022/08/24 01:40:39;;;;;;;44.40;35.10;;;;;;;18.75;100.00;96847.17;108583;1268;23715;-81
2022/08/24 01:43:10;;;;;;;40.50;32.40;;;;;;;18.71;100.00;96844.94;108568;1268;22612;-80
2022/08/24 01:45:38;;;;;;;41.50;33.30;;;;;;;18.74;100.00;96845.50;108589;1268;22536;-80
2022/08/24 01:48:09;;;;;;;45.10;32.70;;;;;;;18.76;100.00;96849.28;108499;1268;30213;-81
2022/08/24 01:50:40;;;;;;;40.90;31.80;;;;;;;18.78;100.00;96845.56;108559;1268;23912;-81
2022/08/24 01:53:09;;;;;;;39.60;31.50;;;;;;;18.77;100.00;96844.52;108588;1268;23004;-81
2022/08/24 01:55:40;;;;;;;41.30;33.10;;;;;;;18.74;100.00;96849.13;108601;1267;22580;-81
2022/08/24 01:58:09;;;;;;;39.20;31.80;;;;;;;18.75;100.00;96854.44;108468;1267;49187;-81
2022/08/24 02:00:39;;;;;;;40.90;32.30;;;;;;;18.75;100.00;96852.77;108576;1267;24227;-81
2022/08/24 02:03:08;;;;;;;40.30;31.60;;;;;;;18.73;100.00;96847.61;108552;1268;25265;-81
2022/08/24 02:05:38;;;;;;;41.60;33.30;;;;;;;18.70;100.00;96849.70;108507;1268;22495;-80
2022/08/24 02:08:07;;;;;;;40.50;32.00;;;;;;;18.71;100.00;96853.95;108431;1268;41849;-82
2022/08/24 02:10:38;;;;;;;42.10;33.80;;;;;;;18.71;100.00;96855.13;108552;1268;25208;-81
2022/08/24 02:13:07;;;;;;;41.80;33.70;;;;;;;18.72;100.00;96855.40;108668;1267;22579;-81
2022/08/24 02:15:38;;;;;;;40.10;32.40;;;;;;;18.74;100.00;96858.23;108668;1268;22662;-81
2022/08/24 02:18:08;;;;;;;40.70;33.30;;;;;;;18.73;100.00;96858.27;108505;1268;49331;-80
2022/08/24 02:20:38;;;;;;;43.00;35.20;;;;;;;18.69;100.00;96859.73;108584;1268;22653;-80
2022/08/24 02:23:07;;;;;;;44.80;34.40;;;;;;;18.66;100.00;96862.84;108556;1268;24238;-81
2022/08/24 02:25:36;;;;;;;44.60;34.50;;;;;;;18.63;100.00;96860.80;108601;1268;22541;-80
2022/08/24 02:28:05;;;;;;;42.30;33.80;;;;;;;18.64;100.00;96856.54;108497;1268;29370;-80
2022/08/24 02:30:33;;;;;;;44.60;35.50;;;;;;;18.66;100.00;96854.38;108563;1268;22569;-80
2022/08/24 02:33:07;;;;;;;41.60;33.30;;;;;;;18.69;100.00;96854.20;108535;1265;22635;-80
2022/08/24 02:35:37;;;;;;;47.40;37.40;;;;;;;18.74;100.00;96852.64;108583;1268;22643;-80
2022/08/24 02:38:06;;;;;;;44.20;33.30;;;;;;;18.76;100.00;96848.89;108450;1268;50660;-80
2022/08/24 02:40:36;;;;;;;40.00;33.10;;;;;;;18.77;100.00;96844.30;108585;1268;22683;-80
2022/08/24 02:43:09;;;;;;;42.30;34.20;;;;;;;18.77;100.00;96846.55;108515;1268;23144;-80
2022/08/24 02:45:41;;;;;;;42.70;34.10;;;;;;;18.80;100.00;96846.59;108548;1268;23720;-80
2022/08/24 02:48:11;;;;;;;35.00;29.60;;;;;;;18.81;100.00;96848.23;108485;1268;24190;-80
2022/08/24 02:50:47;;;;;;;37.40;32.70;;;;;;;18.80;100.00;96844.41;108576;1267;22598;-80
2022/08/24 02:53:19;;;;;;;36.00;30.50;;;;;;;18.79;100.00;96845.31;108547;1268;22658;-80
2022/08/24 02:55:49;;;;;;;37.30;31.80;;;;;;;18.77;100.00;96844.59;108577;1268;26003;-80
2022/08/24 02:58:20;;;;;;;36.80;30.60;;;;;;;18.76;100.00;96842.89;108481;1268;32699;-80
2022/08/24 03:00:49;;;;;;;35.00;29.80;;;;;;;18.77;100.00;96844.94;108569;1267;22534;-80
2022/08/24 03:03:18;;;;;;;44.10;34.50;;;;;;;18.77;100.00;96850.15;108537;1267;22548;-80
2022/08/24 03:05:47;;;;;;;46.80;37.00;;;;;;;18.75;100.00;96846.63;108511;1268;25390;-81
2022/08/24 03:08:15;;;;;;;48.00;37.20;;;;;;;18.71;100.00;96851.02;108464;1266;44683;-80
2022/08/24 03:10:48;;;;;;;49.60;36.80;;;;;;;18.68;100.00;96856.23;108548;1266;22538;-80
2022/08/24 03:13:17;;;;;;;39.90;32.50;;;;;;;18.67;100.00;96865.08;108446;1267;22564;-80
2022/08/24 03:15:45;;;;;;;50.10;39.10;;;;;;;18.65;100.00;96868.56;108495;1268;23475;-81
2022/08/24 03:18:16;;;;;;;44.00;35.20;;;;;;;18.67;100.00;96868.02;108403;1267;26989;-81
2022/08/24 03:20:45;;;;;;;39.20;30.60;;;;;;;18.66;100.00;96869.14;108489;1268;22474;-81
2022/08/24 03:23:13;;;;;;;39.80;31.50;;;;;;;18.61;100.00;96867.23;108442;1268;23781;-81
2022/08/24 03:25:44;;;;;;;42.10;33.80;;;;;;;18.56;100.00;96866.77;108375;1266;24328;-81
2022/08/24 03:28:12;;;;;;;37.00;32.20;;;;;;;18.56;100.00;96867.75;108399;1268;43161;-81
2022/08/24 03:30:42;;;;;;;44.30;34.80;;;;;;;18.57;100.00;96868.50;108482;1267;24239;-81
2022/08/24 03:33:12;;;;;;;46.90;36.70;;;;;;;18.56;100.00;96867.46;108597;1265;22530;-81
2022/08/24 03:35:41;;;;;;;45.60;37.00;;;;;;;18.58;100.00;96870.00;108438;1268;23172;-81
2022/08/24 03:38:09;;;;;;;46.50;37.70;;;;;;;18.60;100.00;96865.83;108443;1268;51403;-81
2022/08/24 03:40:38;;;;;;;47.70;38.70;;;;;;;18.63;100.00;96865.85;108417;1265;24185;-80
2022/08/24 03:43:07;;;;;;;43.70;35.80;;;;;;;18.65;100.00;96866.80;108561;1266;23934;-80
2022/08/24 03:45:36;;;;;;;42.50;35.20;;;;;;;18.65;100.00;96866.02;108525;1268;25961;-81
2022/08/24 03:48:07;;;;;;;43.50;36.00;;;;;;;18.62;100.00;96871.09;108505;1266;41349;-81
2022/08/24 03:50:36;;;;;;;43.80;34.80;;;;;;;18.59;100.00;96868.69;108551;1265;22554;-81
2022/08/24 03:53:05;;;;;;;45.50;35.40;;;;;;;18.60;100.00;96869.09;108454;1268;23021;-81
2022/08/24 03:55:35;;;;;;;43.30;35.30;;;;;;;18.61;100.00;96868.75;108540;1267;22470;-81
2022/08/24 03:58:05;;;;;;;34.70;29.50;;;;;;;18.62;100.00;96862.23;108401;1268;39344;-81
2022/08/24 04:00:33;;;;;;;31.00;27.10;;;;;;;18.58;100.00;96860.86;108487;1267;25249;-81
2022/08/24 04:03:03;;;;;;;33.10;27.60;;;;;;;18.53;100.00;96861.11;108514;1267;22647;-81
2022/08/24 04:05:32;;;;;;;33.40;28.50;;;;;;;18.50;100.00;96856.17;108562;1267;25557;-81
2022/08/24 04:08:01;;;;;;;33.70;28.80;;;;;;;18.49;100.00;96856.84;108451;1268;29092;-81
2022/08/24 04:10:31;;;;;;;30.70;23.30;;;;;;;18.46;100.00;96859.19;108446;1267;22494;-81
2022/08/24 04:13:00;;;;;;;37.50;27.80;;;;;;;18.41;100.00;96855.66;108360;1268;22548;-80
2022/08/24 04:15:30;;;;;;;36.90;29.50;;;;;;;18.33;100.00;96860.83;108533;1267;22577;-80
2022/08/24 04:17:59;;;;;;;32.70;26.50;;;;;;;18.31;100.00;96864.17;108439;1268;32590;-80
2022/08/24 04:20:32;;;;;;;40.60;29.60;;;;;;;18.31;100.00;96860.80;108546;1268;23451;-81
2022/08/24 04:23:01;;;;;;;38.30;29.70;;;;;;;18.27;100.00;96869.20;108566;1265;22529;-81
2022/08/24 04:25:31;;;;;;;35.10;27.70;;;;;;;18.25;100.00;96870.21;108444;1267;22477;-81
2022/08/24 04:28:00;;;;;;;33.60;25.90;;;;;;;18.23;100.00;96869.53;108224;1270;45380;-81
2022/08/24 04:30:28;;;;;;;38.30;28.90;;;;;;;18.21;100.00;96868.21;108399;1268;24414;-81
2022/08/24 04:32:58;;;;;;;37.60;29.10;;;;;;;18.22;100.00;96869.06;108475;1267;23634;-81
2022/08/24 04:35:26;;;;;;;35.00;26.40;;;;;;;18.24;100.00;96865.89;108526;1267;22591;-82
2022/08/24 04:37:55;;;;;;;35.30;27.80;;;;;;;18.25;100.00;96863.02;108506;1268;39499;-81
2022/08/24 04:40:26;;;;;;;37.30;27.10;;;;;;;18.26;100.00;96866.33;108500;1268;22562;-81
2022/08/24 04:42:57;;;;;;;33.10;25.40;;;;;;;18.29;100.00;96869.67;108395;1268;22566;-81
2022/08/24 04:45:26;;;;;;;38.50;28.00;;;;;;;18.32;100.00;96872.45;108506;1265;22545;-81
2022/08/24 04:47:56;;;;;;;40.90;28.10;;;;;;;18.33;100.00;96871.84;108434;1265;32571;-81
2022/08/24 04:50:25;;;;;;;37.30;25.10;;;;;;;18.34;100.00;96868.77;108523;1267;24357;-81
2022/08/24 04:52:54;;;;;;;39.10;28.50;;;;;;;18.32;100.00;96864.20;108440;1267;24239;-81
2022/08/24 04:55:24;;;;;;;39.80;27.00;;;;;;;18.29;100.00;96862.51;108572;1268;22607;-81
2022/08/24 04:57:53;;;;;;;41.60;28.70;;;;;;;18.30;100.00;96862.85;108454;1268;34281;-81
2022/08/24 05:00:22;;;;;;;35.70;24.70;;;;;;;18.26;100.00;96865.19;108571;1265;25370;-81
2022/08/24 05:02:51;;;;;;;38.20;26.60;;;;;;;18.24;100.00;96866.42;108452;1268;24387;-81
2022/08/24 05:05:22;;;;;;;36.10;25.50;;;;;;;18.26;100.00;96867.50;108528;1268;25276;-81
2022/08/24 05:07:51;;;;;;;39.10;26.30;;;;;;;18.28;100.00;96866.63;108370;1267;41992;-81
2022/08/24 05:10:19;;;;;;;35.40;25.60;;;;;;;18.25;100.00;96864.24;108512;1267;24028;-81
2022/08/24 05:12:49;;;;;;;32.60;24.50;;;;;;;18.23;100.00;96858.92;108555;1267;22585;-81
2022/08/24 05:15:21;;;;;;;41.00;27.30;;;;;;;18.25;100.00;96865.13;108527;1267;22562;-81
2022/08/24 05:17:50;;;;;;;32.90;23.10;;;;;;;18.30;100.00;96867.80;108380;1268;31443;-81
2022/08/24 05:20:20;;;;;;;31.90;22.90;;;;;;;18.31;100.00;96874.98;108499;1268;23934;-81
2022/08/24 05:22:51;;;;;;;33.60;24.00;;;;;;;18.29;100.00;96884.56;108523;1266;23950;-81
2022/08/24 05:25:21;;;;;;;32.10;22.90;;;;;;;18.29;100.00;96892.46;108564;1268;23753;-81
2022/08/24 05:27:50;;;;;;;;;;;;;;;18.26;100.00;96895.88;108492;1266;44485;-81
2022/08/24 05:30:19;;;;;;;32.20;23.20;;;;;;;18.28;100.00;96896.25;108513;1266;25219;-82
2022/08/24 05:32:48;;;;;;;31.20;23.70;;;;;;;18.34;100.00;96899.02;108503;1267;22605;-82
2022/08/24 05:35:19;;;;;;;29.10;22.10;;;;;;;18.38;100.00;96903.86;108563;1268;25251;-81
2022/08/24 05:37:49;;;;;;;32.70;22.50;;;;;;;18.44;100.00;96900.81;108419;1268;39173;-81
2022/08/24 05:40:20;;;;;;;32.80;23.80;;;;;;;18.47;100.00;96904.02;108583;1267;22564;-81
2022/08/24 05:42:49;;;;;;;29.80;23.30;;;;;;;18.50;100.00;96905.57;108585;1268;22590;-81
2022/08/24 05:45:18;;;;;;;34.00;25.30;;;;;;;18.52;100.00;96901.45;108584;1265;23400;-76
2022/08/24 05:47:47;;;;;;;31.30;23.80;;;;;;;18.52;100.00;96903.60;108453;1267;36477;-77
2022/08/24 05:50:16;;;;;;;28.60;21.30;;;;;;;18.55;100.00;96900.52;108538;1267;22476;-79
2022/08/24 05:52:45;;;;;;;32.50;23.00;;;;;;;18.53;100.00;96904.16;108555;1265;23852;-78
2022/08/24 05:55:14;;;;;;;29.30;22.40;;;;;;;18.47;100.00;96904.39;108569;1267;22534;-78
2022/08/24 05:57:44;;;;;;;34.50;23.30;;;;;;;18.42;100.00;96905.40;108504;1268;24119;-77
2022/08/24 06:00:15;;;;;;;28.40;21.20;;;;;;;18.41;100.00;96906.60;108547;1268;25939;-77
2022/08/24 06:02:44;;;;;;;38.60;22.50;;;;;;;18.39;100.00;96907.84;108541;1268;25357;-75
2022/08/24 06:05:13;;;;;;;35.70;23.40;;;;;;;18.40;100.00;96910.39;108571;1268;22909;-81
2022/08/24 06:07:42;;;;;;;31.50;20.50;;;;;;;18.43;100.00;96912.72;108471;1268;33585;-79
2022/08/24 06:10:13;;;;;;;31.00;21.40;;;;;;;18.36;100.00;96913.48;108576;1265;24884;-78
2022/08/24 06:12:41;;;;;;;32.20;23.10;;;;;;;18.37;100.00;96910.98;108520;1267;23386;-77
2022/08/24 06:15:12;;;;;;;34.10;22.40;;;;;;;18.43;100.00;96906.88;108359;1267;22562;-77
2022/08/24 06:17:40;;;;;;;;;;;;;;;18.41;100.00;96903.75;108551;1268;22501;-77
2022/08/24 06:20:10;;;;;;;35.00;24.80;;;;;;;18.35;100.00;96906.38;108516;1268;22519;-76
2022/08/24 06:22:42;;;;;;;33.70;22.70;;;;;;;18.37;100.00;96915.05;108560;1268;25302;-77
2022/08/24 06:28:01;;;;;;;30.30;21.40;;;;;;;18.50;100.00;96920.04;108407;1267;30392;-77
2022/08/24 06:30:30;;;;;;;32.20;22.20;;;;;;;18.56;100.00;96921.87;108565;1265;23766;-77
2022/08/24 06:33:00;;;;;;;32.80;22.60;;;;;;;18.63;100.00;96918.70;108553;1268;23801;-77
2022/08/24 06:35:30;;;;;;;32.50;22.10;;;;;;;18.69;100.00;96922.73;108576;1267;22686;-77
2022/08/24 06:38:00;;;;;;;32.50;22.00;;;;;;;18.75;100.00;96923.66;108494;1268;26177;-77
2022/08/24 06:40:28;;;;;;;30.00;21.00;;;;;;;18.73;100.00;96927.25;108544;1268;23842;-77
2022/08/24 06:43:03;;;;;;;27.90;20.20;;;;;;;18.68;100.00;96933.89;108565;1263;23067;-76
2022/08/24 06:45:32;;;;;;;29.40;21.40;;;;;;;18.71;100.00;96940.61;108601;1265;23061;-76
2022/08/24 06:48:00;;;;;;;29.50;21.80;;;;;;;18.78;100.00;96944.88;108465;1267;52821;-78
2022/08/24 06:50:30;;;;;;;32.50;23.70;;;;;;;18.82;100.00;96951.02;108542;1268;24239;-76
2022/08/24 06:53:00;;;;;;;31.30;23.70;;;;;;;18.84;100.00;96948.10;108392;1268;24377;-79
2022/08/24 06:55:29;;;;;;;31.90;23.20;;;;;;;18.87;100.00;96943.48;108503;1268;22584;-78
2022/08/24 06:57:58;;;;;;;32.90;24.90;;;;;;;18.86;100.00;96941.60;108462;1268;41914;-77
2022/08/24 07:00:29;;;;;;;35.70;24.60;;;;;;;18.86;100.00;96938.05;108599;1265;22781;-76
2022/08/24 07:02:57;;;;;;;;;;;;;;;18.89;100.00;96935.14;108439;1268;22558;-75
2022/08/24 07:05:26;;;;;;;29.60;21.50;;;;;;;18.97;100.00;96938.81;108495;1268;22990;-75
2022/08/24 07:07:56;;;;;;;29.70;21.90;;;;;;;19.06;100.00;96945.16;108436;1267;35814;-77
2022/08/24 07:10:25;;;;;;;32.50;22.80;;;;;;;19.11;100.00;96952.84;108516;1267;22672;-79
2022/08/24 07:12:55;;;;;;;37.50;26.40;;;;;;;19.03;100.00;96954.33;108629;1267;22660;-81
2022/08/24 07:15:25;;;;;;;34.90;26.60;;;;;;;19.00;100.00;96953.29;108626;1268;25509;-76
2022/08/24 07:17:53;;;;;;;32.80;24.80;;;;;;;19.06;100.00;96946.45;108512;1268;49870;-78
2022/08/24 07:20:23;;;;;;;34.40;26.40;;;;;;;19.20;100.00;96937.80;108620;1268;22570;-78
2022/08/24 07:22:55;;;;;;;37.60;27.00;;;;;;;19.37;100.00;96935.59;108581;1267;25361;-77
2022/08/24 07:25:23;;;;;;;31.20;22.90;;;;;;;19.53;100.00;96937.23;108653;1267;22748;-78
2022/08/24 07:27:53;;;;;;;29.30;23.40;;;;;;;19.59;100.00;96935.27;108489;1268;36469;-77
2022/08/24 07:30:22;;;;;;;28.40;21.70;;;;;;;19.68;100.00;96936.36;108595;1268;25596;-78
2022/08/24 07:32:51;;;;;;;31.30;21.30;;;;;;;19.77;100.00;96943.64;108516;1267;22731;-78
2022/08/24 07:35:21;;;;;;;24.90;19.50;;;;;;;19.81;100.00;96945.94;108588;1267;23909;-78
2022/08/24 07:37:51;;;;;;;26.30;20.00;;;;;;;19.76;100.00;96948.90;108424;1267;37165;-77
2022/08/24 07:40:20;;;;;;;26.50;19.40;;;;;;;19.66;100.00;96948.60;108525;1268;22671;-76
2022/08/24 07:42:52;;;;;;;25.10;18.00;;;;;;;19.70;100.00;96947.30;108537;1267;22480;-76
2022/08/24 07:45:23;;;;;;;23.50;17.70;;;;;;;19.79;100.00;96952.08;108536;1268;22996;-76
2022/08/24 07:47:52;;;;;;;22.40;18.00;;;;;;;19.85;100.00;96959.09;108507;1268;26429;-76
2022/08/24 07:50:22;;;;;;;22.00;18.40;;;;;;;19.92;100.00;96962.70;108544;1268;25302;-76
2022/08/24 07:52:51;;;;;;;21.40;15.10;;;;;;;19.99;100.00;96961.81;108526;1268;24347;-76
2022/08/24 07:55:23;;;;;;;21.70;14.20;;;;;;;19.94;100.00;96962.08;108539;1266;22542;-76
2022/08/24 07:57:53;;;;;;;19.40;14.10;;;;;;;19.88;100.00;96959.86;108462;1268;54844;-76
2022/08/24 08:00:22;;;;;;;21.40;15.60;;;;;;;19.90;100.00;96957.87;108565;1267;24261;-75
2022/08/24 08:02:51;;;;;;;24.60;17.70;;;;;;;19.80;100.00;96968.05;108523;1268;22579;-76
2022/08/24 08:05:23;;;;;;;23.30;17.90;;;;;;;19.75;100.00;96963.63;108528;1268;22675;-76
2022/08/24 08:07:52;;;;;;;22.30;16.70;;;;;;;19.81;100.00;96962.05;108453;1267;27197;-76
2022/08/24 08:10:22;;;;;;;21.90;16.80;;;;;;;19.92;100.00;96964.77;108548;1268;23817;-77
2022/08/24 08:12:51;;;;;;;19.80;14.70;;;;;;;19.97;100.00;96965.13;108559;1267;22503;-77
2022/08/24 08:15:20;;;;;;;19.60;14.70;;;;;;;19.86;100.00;96962.58;108552;1267;23705;-76
2022/08/24 08:17:52;;;;;;;25.70;17.50;;;;;;;19.77;100.00;96964.23;108453;1266;28025;-76
2022/08/24 08:20:21;;;;;;;24.10;17.40;;;;;;;19.74;100.00;96970.05;108532;1267;22941;-76
2022/08/24 08:25:38;;;;;;;28.90;19.80;;;;;;;19.90;100.00;96983.69;108460;1268;22529;-77
2022/08/24 08:28:07;;;;;;;26.10;18.00;;;;;;;19.99;100.00;96987.55;108299;1266;85979;-76
2022/08/24 08:30:36;;;;;;;26.30;16.60;;;;;;;19.99;100.00;96986.95;108517;1267;22627;-76
2022/08/24 08:33:06;;;;;;;28.00;18.00;;;;;;;19.88;100.00;96985.63;108505;1268;24052;-78
2022/08/24 08:35:36;;;;;;;28.80;16.90;;;;;;;19.83;100.00;96984.76;108532;1268;23018;-78
2022/08/24 08:38:07;;;;;;;25.90;17.10;;;;;;;19.81;100.00;96983.90;108307;1268;120812;-78
2022/08/24 08:40:54;;;;;;;27.50;16.40;;;;;;;19.86;100.00;96981.39;108558;1268;22570;-78
2022/08/24 08:43:39;;;;;;;25.20;14.80;;;;;;;20.07;100.00;96983.09;108568;1268;22573;-78
2022/08/24 08:46:23;;;;;;;25.20;13.90;;;;;;;20.32;100.00;96982.28;108516;1268;22647;-78
2022/08/24 08:49:08;;;;;;;27.80;14.70;;;;;;;20.46;100.00;96981.80;108440;1265;34692;-78
2022/08/24 08:52:23;;;;;;;30.50;15.00;;;;;;;20.69;100.00;96976.95;108603;1268;23737;-78
2022/08/24 08:55:02;;;;;;;30.10;16.30;;;;;;;21.07;100.00;96969.77;108538;1267;22480;-78
2022/08/24 08:58:04;;;;;;;26.80;15.70;;;;;;;21.12;100.00;96966.25;108559;1266;22577;-78
2022/08/24 09:00:49;;;;;;;24.10;15.90;;;;;;;21.08;100.00;96963.94;108549;1267;22599;-78
2022/08/24 09:03:59;;;;;;;24.80;15.80;;;;;;;21.04;100.00;96965.77;108522;1268;23372;-78
2022/08/24 09:06:48;;;;;;;29.40;16.80;;;;;;;21.08;100.00;96972.10;108563;1268;22639;-78
2022/08/24 09:09:45;;;;;;;27.30;16.40;;;;;;;21.23;100.00;96972.68;108472;1267;25269;-78
2022/08/24 09:12:26;;;;;;;22.10;14.00;;;;;;;21.48;100.00;96971.05;108550;1267;22533;-78
2022/08/24 09:15:17;;;;;;;25.30;15.30;;;;;;;21.68;100.00;96967.20;108538;1268;22589;-78
2022/08/24 09:17:57;;;;;;;26.10;14.00;;;;;;;21.95;100.00;96959.94;108446;1267;26820;-78
2022/08/24 09:20:50;;;;;;;26.30;11.70;;;;;;;22.11;100.00;96959.28;108531;1268;24023;-78
2022/08/24 09:23:31;;;;;;;27.10;12.10;;;;;;;22.03;100.00;96959.63;108528;1268;22738;-79
2022/08/24 09:26:04;;;;;;;28.50;14.20;;;;;;;22.16;100.00;96961.26;108561;1268;24047;-79
2022/08/24 09:28:47;;;;;;;25.80;13.60;;;;;;;22.41;100.00;96971.88;108518;1268;33429;-79
2022/08/24 09:31:51;;;;;;;25.00;13.00;;;;;;;22.43;99.95;96972.86;108580;1267;22486;-79
2022/08/24 09:34:34;;;;;;;26.90;14.00;;;;;;;22.52;99.64;96969.30;108578;1265;22682;-79
2022/08/24 09:37:30;;;;;;;28.50;13.80;;;;;;;22.51;98.97;96975.45;108625;1265;23180;-79
2022/08/24 09:40:16;;;;;;;26.70;13.10;;;;;;;22.53;98.15;96978.27;108478;1268;46578;-79
2022/08/24 09:43:15;;;;;;;28.10;12.40;;;;;;;22.37;96.09;96974.16;108533;1268;22586;-79
2022/08/24 09:46:14;;;;;;;29.00;11.50;;;;;;;22.32;97.08;96968.09;108567;1266;23516;-78
2022/08/24 09:49:05;;;;;;;29.20;13.30;;;;;;;22.47;97.07;96969.96;108452;1265;33343;-78
2022/08/24 09:52:09;;;;;;;29.10;13.00;;;;;;;22.65;96.41;96968.85;108556;1267;22543;-78
2022/08/24 09:55:07;;;;;;;28.10;12.70;;;;;;;22.71;96.11;96957.98;108501;1268;24205;-78
2022/08/24 09:57:57;;;;;;;29.60;13.20;;;;;;;22.81;95.22;96960.17;108589;1265;22558;-78
2022/08/24 10:00:30;;;;;;;26.90;11.10;;;;;;;23.03;95.21;96954.21;108578;1267;23973;-78
2022/08/24 10:03:08;;;;;;;29.40;13.10;;;;;;;23.40;95.27;96953.52;108554;1268;23698;-78
2022/08/24 10:06:06;;;;;;;27.80;12.30;;;;;;;23.86;95.32;96948.66;108509;1267;23642;-75
2022/08/24 10:08:54;;;;;;;31.40;12.40;;;;;;;24.23;92.77;96949.48;108419;1268;36148;-77
2022/08/24 10:11:36;;;;;;;30.30;11.60;;;;;;;24.07;89.89;96954.34;108560;1267;25386;-77
2022/08/24 10:14:18;;;;;;;27.60;12.30;;;;;;;23.97;90.72;96955.08;108703;1268;23300;-77
2022/08/24 10:16:57;;;;;;;29.10;11.90;;;;;;;23.94;89.47;96955.95;108610;1266;22514;-76
2022/08/24 10:19:47;;;;;;;27.10;11.60;;;;;;;23.93;89.61;96956.53;108595;1267;24201;-76
2022/08/24 10:22:30;;;;;;;29.40;12.60;;;;;;;23.95;88.33;96956.05;108653;1265;22647;-76
2022/08/24 10:25:15;;;;;;;29.30;13.00;;;;;;;23.75;87.87;96952.45;108678;1266;25041;-76
2022/08/24 10:27:57;;;;;;;28.10;11.90;;;;;;;23.92;89.50;96947.77;108537;1267;33821;-76
2022/08/24 10:31:00;;;;;;;32.20;12.40;;;;;;;24.07;88.66;96950.87;107567;1266;1326140;-77
2022/08/24 10:33:40;;;;;;;26.60;12.20;;;;;;;24.03;87.37;96951.08;108552;1266;22545;-76
2022/08/24 10:36:48;;;;;;;31.20;12.20;;;;;;;24.05;87.99;96948.71;108634;1268;22479;-77
2022/08/24 10:39:44;;;;;;;23.30;11.50;;;;;;;24.20;88.19;96948.87;108554;1265;32942;-76
2022/08/24 10:45:55;;;;;;;35.20;13.10;;;;;;;24.15;85.00;96947.06;108555;1268;23849;-76
2022/08/24 10:49:03;;;;;;;30.90;12.60;;;;;;;23.79;83.39;96956.40;108519;1268;33549;-75
2022/08/24 10:51:42;;;;;;;27.80;12.90;;;;;;;23.34;84.60;96959.73;108580;1268;25367;-75
2022/08/24 10:54:12;;;;;;;29.80;13.60;;;;;;;23.30;85.95;96964.90;108510;1267;24228;-76
2022/08/24 10:56:55;;;;;;;30.10;12.40;;;;;;;23.31;86.27;96963.29;108574;1268;24338;-76
2022/08/24 10:59:30;;;;;;;31.10;12.90;;;;;;;23.44;87.30;96958.95;108551;1266;23559;-77
2022/08/24 11:02:08;;;;;;;29.50;12.60;;;;;;;23.63;87.79;96949.34;108559;1268;23030;-77
2022/08/24 11:04:42;;;;;;;26.50;12.80;;;;;;;23.86;87.92;96946.34;108566;1267;23714;-77
2022/08/24 11:07:20;;;;;;;24.40;11.80;;;;;;;23.89;85.80;96945.88;108563;1267;23424;-76
2022/08/24 11:09:55;;;;;;;33.50;13.90;;;;;;;23.67;85.09;96950.52;108445;1268;36036;-76
2022/08/24 11:12:29;;;;;;;27.30;12.30;;;;;;;23.70;86.59;96948.87;108605;1267;22684;-76
2022/08/24 11:15:01;;;;;;;29.00;13.40;;;;;;;23.79;86.11;96946.27;108649;1268;22486;-78
2022/08/24 11:17:33;;;;;;;28.40;12.40;;;;;;;23.87;85.83;96944.02;108607;1268;22641;-76
2022/08/24 11:20:03;;;;;;;29.00;12.50;;;;;;;24.00;85.92;96940.66;108561;1268;35948;-76
2022/08/24 11:22:39;;;;;;;26.40;12.50;;;;;;;24.13;85.59;96937.27;108563;1267;24255;-75
2022/08/24 11:25:20;;;;;;;24.80;12.20;;;;;;;24.22;85.23;96936.30;108538;1268;22476;-76
2022/08/24 11:27:57;;;;;;;28.90;12.50;;;;;;;24.16;84.30;96936.02;108511;1267;32965;-76
2022/08/24 11:30:29;;;;;;;28.00;12.90;;;;;;;23.97;83.73;96931.94;108462;1267;24976;-76
2022/08/24 11:33:01;;;;;;;28.70;14.10;;;;;;;23.63;83.43;96936.80;108482;1267;24279;-76
2022/08/24 11:35:38;;;;;;;26.80;13.40;;;;;;;23.43;84.64;96943.55;108538;1267;22547;-77
2022/08/24 11:38:17;;;;;;;29.30;15.00;;;;;;;23.45;85.55;96947.13;108279;1271;41527;-77
2022/08/24 11:40:51;;;;;;;31.30;14.50;;;;;;;23.45;85.27;96949.85;108395;1268;22486;-77
2022/08/24 11:43:34;;;;;;;29.80;15.50;;;;;;;23.34;84.79;96951.01;108568;1268;24301;-77
2022/08/24 11:46:11;;;;;;;33.00;13.90;;;;;;;23.34;85.30;96947.36;108592;1265;25246;-77